Rousse, Bulgaria

2:22 PM EEST on September 01, 2015 (GMT +0300)
Rasuceni | | Change Station
CLOSE
Current Station
Personal Weather Station
Location: R%u0103suceni,
Elevation: 217 ft
Nearby Weather Stations

Elev 217 ft 44.10 °N, 25.67 °E | Updated 8 seconds ago

Clear
Clear
93.4 °F
Feels Like 91 °F
N
0.9
Wind Variable Wind from NNW
Gusts 1.7 mph

Today
High -- | Low -- °F
--% Chance of Precip.
Yesterday
High -- | Low -- °F
Precip. -- in
6:39 AM 7:52 PM
Waning Gibbous, 89% visible
Pressure 30.01 in
Visibility -9999.0 miles
Clouds
Heat Index 91 °F
Dew Point 54 °F
Humidity 27%
Rainfall 0.00 in
Snow Depth Not available.
UV Not available.
Pollen Not available.
Air Quality Not available.
Flu Activity Not available.
METAR LRBS 011100Z 12005KT 050V210 CAVOK 33/15 Q1016 NOSIG
Pressure 30.01 in
Visibility -9999.0 miles
Clouds
Heat Index 91 °F
Dew Point 54 °F
Humidity 27%
Rainfall 0.00 in
Snow Depth Not available.
UV Not available.
Pollen Not available.
Air Quality Not available.
Flu Activity Not available.
METAR LRBS 011100Z 12005KT 050V210 CAVOK 33/15 Q1016 NOSIG

10-Day Weather Forecast

×

Almanac

Astronomy

Sep. 01, 2015 Rise Set
Actual Time
Civil Twilight
Nautical Twilight
Astronomical Twilight
Moon
Length of Visible Light
Length of Day
Tomorrow will be .
, % of the Moon is Illuminated

Today's Extremes

Country Highs Country Lows

Community

WunderPhotos

Upload Photos

1,851,501 photos uploaded!

WunderBlogs® & News

Nearby

Air Quality

  Air Quality AQ Index Pollutant
Not available.

Snow Depth

Station Depth Elevation

Earthquake Activity

City Distance Mag. Time & Date
Minimum magnitude displayed is 2.5.

Coastal Water Temperatures

Place Temperature

Stations

Nearby Weather Stations

Station Location Temp. Windchill Dew Point Humidity Wind Precip. Elev Updated Type